createdAt,value
2023-05-19T00:01:37.562Z,13.20
2023-05-19T00:04:05.402Z,13.20
2023-05-19T00:06:33.436Z,13.20
2023-05-19T00:09:13.788Z,13.20
2023-05-19T00:11:43.607Z,13.10
2023-05-19T00:14:17.905Z,13.00
2023-05-19T00:16:50.206Z,13.00
2023-05-19T00:19:17.764Z,13.00
2023-05-19T00:21:49.680Z,12.90
2023-05-19T00:24:23.630Z,12.90
2023-05-19T00:26:52.867Z,12.90
2023-05-19T00:29:19.786Z,12.90
2023-05-19T00:31:49.050Z,12.80
2023-05-19T00:34:16.023Z,12.80
2023-05-19T00:36:45.431Z,12.80
2023-05-19T00:39:19.629Z,12.80
2023-05-19T00:41:50.995Z,12.80
2023-05-19T00:44:22.511Z,12.80
2023-05-19T00:46:49.606Z,12.70
2023-05-19T00:49:19.054Z,12.70
2023-05-19T00:51:46.563Z,12.70
2023-05-19T00:54:16.065Z,12.70
2023-05-19T00:56:45.238Z,12.70
2023-05-19T00:59:12.921Z,12.70
2023-05-19T01:01:43.185Z,12.60
2023-05-19T01:04:16.727Z,12.70
2023-05-19T01:06:47.662Z,12.60
2023-05-19T01:09:14.872Z,12.60
2023-05-19T01:11:44.201Z,12.60
2023-05-19T01:14:15.705Z,12.60
2023-05-19T01:17:05.378Z,12.50
2023-05-19T01:20:11.075Z,12.50
2023-05-19T01:23:15.019Z,12.50
2023-05-19T01:26:25.959Z,12.50
2023-05-19T01:29:17.305Z,12.50
2023-05-19T01:31:50.342Z,12.50
2023-05-19T01:34:22.558Z,12.50
2023-05-19T01:36:55.903Z,12.40
2023-05-19T01:39:25.112Z,12.40
2023-05-19T01:41:54.578Z,12.40
2023-05-19T01:44:25.430Z,12.40
2023-05-19T01:46:52.913Z,12.40
2023-05-19T01:49:19.841Z,12.40
2023-05-19T01:51:46.819Z,12.30
2023-05-19T01:54:14.163Z,12.30
2023-05-19T01:56:57.699Z,12.30
2023-05-19T01:59:48.507Z,12.30
2023-05-19T02:02:43.849Z,12.30
2023-05-19T02:05:29.428Z,12.30
2023-05-19T02:08:16.995Z,12.30
2023-05-19T02:11:09.724Z,12.30
2023-05-19T02:13:44.490Z,12.20
2023-05-19T02:16:16.534Z,12.20
2023-05-19T02:18:45.440Z,12.20
2023-05-19T02:21:14.775Z,12.20
2023-05-19T02:23:42.032Z,12.20
2023-05-19T02:26:13.579Z,12.20
2023-05-19T02:28:44.994Z,12.20
2023-05-19T02:31:13.894Z,12.10
2023-05-19T02:33:45.717Z,12.10
2023-05-19T02:36:19.092Z,12.00
2023-05-19T02:38:52.576Z,12.10
2023-05-19T02:41:19.511Z,12.10
2023-05-19T02:43:53.287Z,12.10
2023-05-19T02:46:20.669Z,12.10
2023-05-19T02:48:51.163Z,12.00
2023-05-19T02:51:21.268Z,12.10
2023-05-19T02:53:50.998Z,12.00
2023-05-19T02:56:21.198Z,12.00
2023-05-19T02:58:48.186Z,12.00
2023-05-19T03:01:23.211Z,12.00
2023-05-19T03:03:52.509Z,12.00
2023-05-19T03:06:24.305Z,12.00
2023-05-19T03:08:51.432Z,12.00
2023-05-19T03:11:20.833Z,12.00
2023-05-19T03:13:47.770Z,12.00
2023-05-19T03:16:17.132Z,12.00
2023-05-19T03:18:46.338Z,12.00
2023-05-19T03:21:20.912Z,12.00
2023-05-19T03:23:47.852Z,12.00
2023-05-19T03:26:14.758Z,12.00
2023-05-19T03:28:48.840Z,12.00
2023-05-19T03:31:19.088Z,11.90
2023-05-19T03:33:48.550Z,11.90
2023-05-19T03:36:15.456Z,11.90
2023-05-19T03:38:44.602Z,11.90
2023-05-19T03:41:15.954Z,11.90
2023-05-19T03:43:42.888Z,11.90
2023-05-19T03:46:12.170Z,11.90
2023-05-19T03:49:04.243Z,11.80
2023-05-19T03:51:49.889Z,11.90
2023-05-19T03:54:35.870Z,11.80
2023-05-19T03:57:05.890Z,11.80
2023-05-19T03:59:41.371Z,11.80
2023-05-19T04:02:08.468Z,11.80
2023-05-19T04:04:35.749Z,11.80
2023-05-19T04:07:07.276Z,11.80
2023-05-19T04:09:35.235Z,11.80
2023-05-19T04:12:05.437Z,11.80
2023-05-19T04:14:34.915Z,11.80
2023-05-19T04:17:04.464Z,11.80
2023-05-19T04:19:33.962Z,11.80
2023-05-19T04:22:04.328Z,11.80
2023-05-19T04:24:31.394Z,11.80
2023-05-19T04:27:04.735Z,11.90
2023-05-19T04:29:32.610Z,11.80
2023-05-19T04:32:02.039Z,11.80
2023-05-19T04:34:31.246Z,11.80
2023-05-19T04:36:59.116Z,11.80
2023-05-19T04:39:28.390Z,11.80
2023-05-19T04:41:57.857Z,11.80
2023-05-19T04:44:25.301Z,11.80
2023-05-19T04:46:57.848Z,11.80
2023-05-19T04:49:27.197Z,11.80
2023-05-19T04:51:56.544Z,11.80
2023-05-19T04:54:27.677Z,11.80
2023-05-19T04:56:56.747Z,11.90
2023-05-19T04:59:30.000Z,11.90
2023-05-19T05:01:57.922Z,11.90
2023-05-19T05:04:29.658Z,11.90
2023-05-19T05:07:01.170Z,11.90
2023-05-19T05:09:33.464Z,11.90
2023-05-19T05:12:03.056Z,12.00
2023-05-19T05:14:34.554Z,12.00
2023-05-19T05:17:04.305Z,12.00
2023-05-19T05:19:36.429Z,12.00
2023-05-19T05:22:07.514Z,12.10
2023-05-19T05:24:38.533Z,12.10
2023-05-19T05:27:08.045Z,12.10
2023-05-19T05:29:39.772Z,12.10
2023-05-19T05:32:12.583Z,12.10
2023-05-19T05:34:45.196Z,12.20
2023-05-19T05:37:15.390Z,12.20
2023-05-19T05:39:44.762Z,12.20
2023-05-19T05:42:12.236Z,12.20
2023-05-19T05:44:45.230Z,12.30
2023-05-19T05:47:17.528Z,12.30
2023-05-19T05:49:48.111Z,12.40
2023-05-19T05:52:20.897Z,12.40
2023-05-19T05:54:51.315Z,12.40
2023-05-19T05:57:23.994Z,12.50
2023-05-19T05:59:53.554Z,12.50
2023-05-19T06:02:20.846Z,12.60
2023-05-19T06:04:54.100Z,12.60
2023-05-19T06:07:24.285Z,12.70
2023-05-19T06:09:56.752Z,12.80
2023-05-19T06:12:27.185Z,12.80
2023-05-19T06:14:54.769Z,12.90
2023-05-19T06:17:38.200Z,13.00
2023-05-19T06:20:06.619Z,13.00
2023-05-19T06:22:38.425Z,13.10
2023-05-19T06:25:11.554Z,13.10
2023-05-19T06:27:41.613Z,13.20
2023-05-19T06:30:15.916Z,13.20
2023-05-19T06:32:57.816Z,13.30
2023-05-19T06:35:26.310Z,13.30
2023-05-19T06:37:56.133Z,13.40
2023-05-19T06:40:28.215Z,13.40
2023-05-19T06:42:58.139Z,13.50
2023-05-19T06:45:41.761Z,13.50
2023-05-19T06:48:13.474Z,13.60
2023-05-19T06:50:43.513Z,13.70
2023-05-19T06:53:10.427Z,13.80
2023-05-19T06:55:57.546Z,13.90
2023-05-19T06:58:27.981Z,13.90
2023-05-19T07:00:59.996Z,14.00
2023-05-19T07:03:34.039Z,14.10
2023-05-19T07:06:00.993Z,14.20
2023-05-19T07:08:34.448Z,14.20
2023-05-19T07:11:08.174Z,14.30
2023-05-19T07:13:39.610Z,14.40
2023-05-19T07:16:09.328Z,14.50
2023-05-19T07:18:43.572Z,14.60
2023-05-19T07:21:13.805Z,14.70
2023-05-19T07:23:40.709Z,14.80
2023-05-19T07:26:08.000Z,14.90
2023-05-19T07:28:39.765Z,15.00
2023-05-19T07:31:10.663Z,15.10
2023-05-19T07:33:41.173Z,15.20
2023-05-19T07:36:09.017Z,15.30
2023-05-19T07:38:36.106Z,15.30
2023-05-19T07:41:07.721Z,15.40
2023-05-19T07:43:36.852Z,15.60
2023-05-19T07:46:04.264Z,15.60
2023-05-19T07:48:33.367Z,15.70
2023-05-19T07:51:02.734Z,15.80
2023-05-19T07:53:29.989Z,15.90
2023-05-19T07:56:01.334Z,16.00
2023-05-19T07:58:28.318Z,16.10
2023-05-19T08:01:00.675Z,16.10
2023-05-19T08:03:27.899Z,16.20
2023-05-19T08:05:57.361Z,16.30
2023-05-19T08:08:26.894Z,16.40
2023-05-19T08:10:56.488Z,16.40
2023-05-19T08:13:25.892Z,16.50
2023-05-19T08:15:54.286Z,16.60
2023-05-19T08:18:25.527Z,16.70
2023-05-19T08:20:57.114Z,16.80
2023-05-19T08:23:26.415Z,16.90
2023-05-19T08:25:59.974Z,17.00
2023-05-19T08:28:29.360Z,17.00
2023-05-19T08:30:56.311Z,17.10
2023-05-19T08:33:25.486Z,17.20
2023-05-19T08:35:59.929Z,17.30
2023-05-19T08:38:26.985Z,17.30
2023-05-19T08:40:58.067Z,17.40
2023-05-19T08:43:29.849Z,17.50
2023-05-19T08:46:00.642Z,17.50
2023-05-19T08:48:37.091Z,17.70
2023-05-19T08:51:38.995Z,17.80
2023-05-19T08:54:22.427Z,17.90
2023-05-19T08:56:52.056Z,18.00
2023-05-19T08:59:25.626Z,18.10
2023-05-19T09:01:57.348Z,18.20
2023-05-19T09:04:30.350Z,18.30
2023-05-19T09:06:58.763Z,18.40
2023-05-19T09:09:27.872Z,18.50
2023-05-19T09:11:56.899Z,18.50
2023-05-19T09:14:26.545Z,18.60
2023-05-19T09:16:54.037Z,18.70
2023-05-19T09:19:31.251Z,18.90
2023-05-19T09:22:06.351Z,18.90
2023-05-19T09:24:38.459Z,19.00
2023-05-19T09:27:08.152Z,19.00
2023-05-19T09:29:37.210Z,19.10
2023-05-19T09:32:07.020Z,19.20
2023-05-19T09:34:43.766Z,19.30
2023-05-19T09:37:16.152Z,19.40
2023-05-19T09:39:49.112Z,19.50
2023-05-19T09:42:25.470Z,19.50
2023-05-19T09:45:05.854Z,19.70
2023-05-19T09:47:43.534Z,19.70
2023-05-19T09:50:15.080Z,19.80
2023-05-19T09:52:48.223Z,19.90
2023-05-19T09:55:23.048Z,20.00
2023-05-19T09:57:50.225Z,20.10
2023-05-19T10:00:20.915Z,20.20
2023-05-19T10:02:50.892Z,20.30
2023-05-19T10:05:20.879Z,20.50
2023-05-19T10:07:54.530Z,20.70
2023-05-19T10:10:24.577Z,20.80
2023-05-19T10:12:52.063Z,21.00
2023-05-19T10:15:22.727Z,21.20
2023-05-19T10:17:51.304Z,21.30
2023-05-19T10:20:22.714Z,21.50
2023-05-19T10:22:51.774Z,21.70
2023-05-19T10:25:21.062Z,21.80
2023-05-19T10:28:14.685Z,21.90
2023-05-19T10:30:49.384Z,22.10
2023-05-19T10:33:28.908Z,22.20
2023-05-19T10:36:23.015Z,22.30
2023-05-19T10:39:04.236Z,22.50
2023-05-19T10:42:30.419Z,22.60
2023-05-19T10:45:19.980Z,22.70
2023-05-19T10:47:50.449Z,22.90
2023-05-19T10:50:20.790Z,23.10
2023-05-19T10:53:00.147Z,23.30
2023-05-19T10:55:52.037Z,23.40
2023-05-19T10:58:52.157Z,23.50
2023-05-19T11:01:25.030Z,23.70
2023-05-19T11:03:57.328Z,23.80
2023-05-19T11:06:36.178Z,23.90
2023-05-19T11:09:17.388Z,24.00
2023-05-19T11:11:57.185Z,24.00
2023-05-19T11:14:31.529Z,24.10
2023-05-19T11:17:02.370Z,24.10
2023-05-19T11:19:35.425Z,24.10
2023-05-19T11:22:29.259Z,24.20
2023-05-19T11:24:56.384Z,24.30
2023-05-19T11:27:27.102Z,24.50
2023-05-19T11:29:57.018Z,24.60
2023-05-19T11:32:34.044Z,24.70
2023-05-19T11:35:06.069Z,24.90
2023-05-19T11:37:36.634Z,25.20
2023-05-19T11:40:08.279Z,25.40
2023-05-19T11:42:39.432Z,25.60
2023-05-19T11:45:10.417Z,25.80
2023-05-19T11:48:00.284Z,26.10
2023-05-19T11:50:31.198Z,26.30
2023-05-19T11:53:01.678Z,26.60
2023-05-19T11:55:31.981Z,26.90
2023-05-19T11:58:04.454Z,27.20
2023-05-19T12:00:40.776Z,27.50
2023-05-19T12:03:11.512Z,27.80
2023-05-19T12:05:45.973Z,28.00
2023-05-19T12:08:16.246Z,28.10
2023-05-19T12:10:48.805Z,28.20
2023-05-19T12:13:17.856Z,28.30
2023-05-19T12:15:47.595Z,28.40
2023-05-19T12:18:20.093Z,28.50
2023-05-19T12:20:50.654Z,28.60
2023-05-19T12:23:20.465Z,28.70
2023-05-19T12:25:49.216Z,28.80
2023-05-19T12:28:23.209Z,29.00
2023-05-19T12:30:52.484Z,29.10
2023-05-19T12:33:24.495Z,29.30
2023-05-19T12:35:57.041Z,29.40
2023-05-19T12:38:24.019Z,29.50
2023-05-19T12:40:51.309Z,29.50
2023-05-19T12:43:22.935Z,29.60
2023-05-19T12:45:50.135Z,29.50
2023-05-19T12:48:22.833Z,29.50
2023-05-19T12:50:55.786Z,29.30
2023-05-19T12:53:22.976Z,29.10
2023-05-19T12:55:54.517Z,28.80
2023-05-19T12:58:22.789Z,28.70
2023-05-19T13:00:50.600Z,28.50
2023-05-19T13:03:22.251Z,28.40
2023-05-19T13:05:55.884Z,28.30
2023-05-19T13:08:27.714Z,28.40
2023-05-19T13:10:56.913Z,28.40
2023-05-19T13:13:28.617Z,28.40
2023-05-19T13:15:58.070Z,28.30
2023-05-19T13:18:25.565Z,28.20
2023-05-19T13:20:54.691Z,28.10
2023-05-19T13:23:21.688Z,28.00
2023-05-19T13:25:50.769Z,28.00
2023-05-19T13:28:20.071Z,28.10
2023-05-19T13:30:49.648Z,28.20
2023-05-19T13:33:16.791Z,28.30
2023-05-19T13:35:46.442Z,28.50
2023-05-19T13:38:15.706Z,28.50
2023-05-19T13:40:45.562Z,28.70
2023-05-19T13:43:14.744Z,28.80
2023-05-19T13:45:46.709Z,29.00
2023-05-19T13:48:13.805Z,29.30
2023-05-19T13:50:40.823Z,29.40
2023-05-19T13:53:12.963Z,29.60
2023-05-19T13:55:42.408Z,29.90
2023-05-19T13:58:10.978Z,30.00
2023-05-19T14:00:43.340Z,30.20
2023-05-19T14:03:16.101Z,30.30
2023-05-19T14:05:47.630Z,30.50
2023-05-19T14:08:16.295Z,30.50
2023-05-19T14:10:45.717Z,30.60
2023-05-19T14:15:52.694Z,30.80
2023-05-19T14:18:26.605Z,30.90
2023-05-19T14:20:58.276Z,30.90
2023-05-19T14:23:25.242Z,30.90
2023-05-19T14:25:56.975Z,30.90
2023-05-19T14:28:24.091Z,30.80
2023-05-19T14:30:51.548Z,30.60
2023-05-19T14:33:21.244Z,30.40
2023-05-19T14:35:53.244Z,30.20
2023-05-19T14:38:20.230Z,29.90
2023-05-19T14:40:49.685Z,29.60
2023-05-19T14:43:25.959Z,29.40
2023-05-19T14:45:52.948Z,29.20
2023-05-19T14:48:19.948Z,29.00
2023-05-19T14:50:53.810Z,29.00
2023-05-19T14:53:23.258Z,28.90
2023-05-19T14:55:52.566Z,28.70
2023-05-19T14:58:28.889Z,28.60
2023-05-19T15:00:59.058Z,28.40
2023-05-19T15:03:28.277Z,28.20
2023-05-19T15:05:55.230Z,28.00
2023-05-19T15:08:22.215Z,27.80
2023-05-19T15:10:51.606Z,27.70
2023-05-19T15:13:21.468Z,27.50
2023-05-19T15:15:50.809Z,27.30
2023-05-19T15:18:20.879Z,27.20
2023-05-19T15:20:48.404Z,27.00
2023-05-19T15:23:15.356Z,26.80
2023-05-19T15:25:46.771Z,26.60
2023-05-19T15:28:17.024Z,26.50
2023-05-19T15:30:45.149Z,26.20
2023-05-19T15:33:12.770Z,26.00
2023-05-19T15:35:39.860Z,25.80
2023-05-19T15:38:07.083Z,25.70
2023-05-19T15:40:34.600Z,25.50
2023-05-19T15:43:02.017Z,25.40
2023-05-19T15:45:33.614Z,25.30
2023-05-19T15:48:03.216Z,25.20
2023-05-19T15:50:32.978Z,25.00
2023-05-19T15:53:02.577Z,24.90
2023-05-19T15:55:29.502Z,24.80
2023-05-19T15:58:00.651Z,24.80
2023-05-19T16:00:29.903Z,24.80
2023-05-19T16:03:01.929Z,24.90
2023-05-19T16:05:31.215Z,25.10
2023-05-19T16:08:00.578Z,25.30
2023-05-19T16:10:27.465Z,25.50
2023-05-19T16:12:56.374Z,25.50
2023-05-19T16:15:27.961Z,25.70
2023-05-19T16:17:57.601Z,25.70
2023-05-19T16:20:27.824Z,25.60
2023-05-19T16:22:55.403Z,25.70
2023-05-19T16:25:24.931Z,25.60
2023-05-19T16:27:54.493Z,25.50
2023-05-19T16:30:26.399Z,25.40
2023-05-19T16:32:56.253Z,25.20
2023-05-19T16:35:27.745Z,25.20
2023-05-19T16:37:59.717Z,25.10
2023-05-19T16:40:30.977Z,25.00
2023-05-19T16:42:58.177Z,24.90
2023-05-19T16:45:27.631Z,24.90
2023-05-19T16:47:54.696Z,24.80
2023-05-19T16:50:21.600Z,24.70
2023-05-19T16:52:50.840Z,24.70
2023-05-19T16:55:20.285Z,24.70
2023-05-19T16:57:47.595Z,24.60
2023-05-19T17:00:15.517Z,24.50
2023-05-19T17:02:47.763Z,24.50
2023-05-19T17:05:14.966Z,24.40
2023-05-19T17:07:44.016Z,24.30
2023-05-19T17:10:14.370Z,24.30
2023-05-19T17:12:48.256Z,24.20
2023-05-19T17:15:20.317Z,24.10
2023-05-19T17:17:47.317Z,24.10
2023-05-19T17:20:18.969Z,24.00
2023-05-19T17:22:45.818Z,23.90
2023-05-19T17:25:15.642Z,23.90
2023-05-19T17:27:46.904Z,23.80
2023-05-19T17:30:16.583Z,23.70
2023-05-19T17:32:45.958Z,23.70
2023-05-19T17:35:15.265Z,23.60
2023-05-19T17:37:44.493Z,23.60
2023-05-19T17:40:16.369Z,23.50
2023-05-19T17:42:45.790Z,23.40
2023-05-19T17:45:14.920Z,23.30
2023-05-19T17:47:41.932Z,23.30
2023-05-19T17:50:11.879Z,23.20
2023-05-19T17:52:47.369Z,23.10
2023-05-19T17:55:17.277Z,23.00
2023-05-19T17:57:47.864Z,23.00
2023-05-19T18:00:15.190Z,23.00
2023-05-19T18:02:44.739Z,22.90
2023-05-19T18:05:14.749Z,22.80
2023-05-19T18:07:44.894Z,22.70
2023-05-19T18:10:14.695Z,22.60
2023-05-19T18:12:49.051Z,22.50
2023-05-19T18:15:16.273Z,22.40
2023-05-19T18:17:48.170Z,22.30
2023-05-19T18:20:18.277Z,22.20
2023-05-19T18:22:45.180Z,22.10
2023-05-19T18:25:14.565Z,22.10
2023-05-19T18:27:47.452Z,22.00
2023-05-19T18:30:16.874Z,21.90
2023-05-19T18:32:50.473Z,21.80
2023-05-19T18:35:22.374Z,21.80
2023-05-19T18:37:51.944Z,21.70
2023-05-19T18:40:21.346Z,21.60
2023-05-19T18:42:50.481Z,21.50
2023-05-19T18:45:21.576Z,21.50
2023-05-19T18:47:50.539Z,21.40
2023-05-19T18:50:24.397Z,21.30
2023-05-19T18:52:54.112Z,21.30
2023-05-19T18:55:20.926Z,21.20
2023-05-19T18:57:47.907Z,21.20
2023-05-19T19:00:15.410Z,21.10
2023-05-19T19:02:46.717Z,21.00
2023-05-19T19:05:16.014Z,21.00
2023-05-19T19:07:44.904Z,20.90
2023-05-19T19:10:12.190Z,20.90
2023-05-19T19:12:39.186Z,20.80
2023-05-19T19:15:06.853Z,20.80
2023-05-19T19:17:33.705Z,20.70
2023-05-19T19:20:00.752Z,20.70
2023-05-19T19:22:32.315Z,20.60
2023-05-19T19:25:01.681Z,20.60
2023-05-19T19:27:30.962Z,20.50
2023-05-19T19:30:02.779Z,20.50
2023-05-19T19:32:32.586Z,20.40
2023-05-19T19:34:59.602Z,20.40
2023-05-19T19:37:28.534Z,20.40
2023-05-19T19:39:57.852Z,20.30
2023-05-19T19:42:29.760Z,20.30
2023-05-19T19:44:59.079Z,20.20
2023-05-19T19:47:28.118Z,20.10
2023-05-19T19:49:57.244Z,20.10
2023-05-19T19:52:26.365Z,20.10
2023-05-19T19:54:55.717Z,20.00
2023-05-19T19:57:22.664Z,20.00
2023-05-19T19:59:54.978Z,20.00
2023-05-19T20:02:22.397Z,19.90
2023-05-19T20:04:52.125Z,19.80
2023-05-19T20:07:20.744Z,19.80
2023-05-19T20:09:51.628Z,19.80
2023-05-19T20:12:21.138Z,19.80
2023-05-19T20:14:51.169Z,19.80
2023-05-19T20:17:20.879Z,19.70
2023-05-19T20:19:52.945Z,19.70
2023-05-19T20:22:22.020Z,19.60
2023-05-19T20:24:48.950Z,19.60
2023-05-19T20:27:15.916Z,19.60
2023-05-19T20:29:46.920Z,19.50
2023-05-19T20:32:16.383Z,19.50
2023-05-19T20:34:45.644Z,19.50
2023-05-19T20:37:20.935Z,19.40
2023-05-19T20:39:50.401Z,19.40
2023-05-19T20:42:22.115Z,19.40
2023-05-19T20:44:51.976Z,19.40
2023-05-19T20:47:20.882Z,19.30
2023-05-19T20:49:50.121Z,19.30
2023-05-19T20:52:23.770Z,19.20
2023-05-19T20:54:53.357Z,19.20
2023-05-19T20:57:28.797Z,19.10
2023-05-19T21:00:01.862Z,19.10
2023-05-19T21:02:28.820Z,19.00
2023-05-19T21:05:00.467Z,19.00
2023-05-19T21:07:27.568Z,18.90
2023-05-19T21:09:58.978Z,18.90
2023-05-19T21:12:34.532Z,18.80
2023-05-19T21:15:06.637Z,18.80
2023-05-19T21:17:33.585Z,18.70
2023-05-19T21:20:03.582Z,18.60
2023-05-19T21:22:32.626Z,18.50
2023-05-19T21:25:06.266Z,18.50
2023-05-19T21:27:36.272Z,18.40
2023-05-19T21:30:06.640Z,18.40
2023-05-19T21:32:38.450Z,18.30
2023-05-19T21:35:06.182Z,18.30
2023-05-19T21:37:37.584Z,18.30
2023-05-19T21:40:04.813Z,18.20
2023-05-19T21:42:34.838Z,18.20
2023-05-19T21:45:04.815Z,18.10
2023-05-19T21:47:31.712Z,18.00
2023-05-19T21:49:58.657Z,18.00
2023-05-19T21:52:25.592Z,17.90
2023-05-19T21:54:56.086Z,17.90
2023-05-19T21:57:23.053Z,17.80
2023-05-19T21:59:52.191Z,17.80
2023-05-19T22:02:19.146Z,17.70
2023-05-19T22:04:48.277Z,17.70
2023-05-19T22:07:17.676Z,17.70
2023-05-19T22:09:49.024Z,17.60
2023-05-19T22:12:15.963Z,17.60
2023-05-19T22:14:45.275Z,17.60
2023-05-19T22:17:12.427Z,17.50
2023-05-19T22:19:41.814Z,17.50
2023-05-19T22:22:14.133Z,17.50
2023-05-19T22:24:44.137Z,17.40
2023-05-19T22:27:11.529Z,17.40
2023-05-19T22:29:45.223Z,17.40
2023-05-19T22:32:17.932Z,17.30
2023-05-19T22:34:47.753Z,17.30
2023-05-19T22:37:17.207Z,17.30
2023-05-19T22:39:47.281Z,17.20
2023-05-19T22:42:16.451Z,17.20
2023-05-19T22:44:45.887Z,17.20
2023-05-19T22:47:13.921Z,17.20
2023-05-19T22:49:41.558Z,17.10
2023-05-19T22:52:12.844Z,17.10
2023-05-19T22:54:40.243Z,17.00
2023-05-19T22:57:07.259Z,17.00
2023-05-19T22:59:38.193Z,17.00
2023-05-19T23:02:06.032Z,17.00
2023-05-19T23:04:36.240Z,17.00
2023-05-19T23:07:05.709Z,16.90
2023-05-19T23:09:34.969Z,16.90
2023-05-19T23:12:04.859Z,16.90
2023-05-19T23:14:33.979Z,16.90
2023-05-19T23:17:03.015Z,16.90
2023-05-19T23:19:33.208Z,16.90
2023-05-19T23:22:07.261Z,16.80
2023-05-19T23:24:39.419Z,16.90
2023-05-19T23:27:08.731Z,16.80
2023-05-19T23:29:37.843Z,16.90
2023-05-19T23:32:05.206Z,16.80
2023-05-19T23:34:36.649Z,16.90
2023-05-19T23:37:05.796Z,16.90
2023-05-19T23:39:32.676Z,16.90
2023-05-19T23:42:04.096Z,16.90
2023-05-19T23:44:35.754Z,16.90
2023-05-19T23:47:02.836Z,16.90
2023-05-19T23:49:29.737Z,16.90
2023-05-19T23:51:56.891Z,16.80
2023-05-19T23:54:26.598Z,16.90
2023-05-19T23:56:58.360Z,16.90
2023-05-19T23:59:25.436Z,16.80
